createdAt,value
2018-06-18T00:00:13.153Z,41.58
2018-06-18T00:02:41.706Z,41.51
2018-06-18T00:05:10.208Z,41.71
2018-06-18T00:07:38.712Z,40.92
2018-06-18T00:10:08.892Z,41.54
2018-06-18T00:12:37.620Z,40.76
2018-06-18T00:15:06.118Z,40.95
2018-06-18T00:17:34.693Z,41.75
2018-06-18T00:20:03.255Z,40.85
2018-06-18T00:22:31.821Z,41.72
2018-06-18T00:25:01.134Z,41.17
2018-06-18T00:27:29.667Z,41.77
2018-06-18T00:29:58.216Z,41.20
2018-06-18T00:32:27.650Z,41.04
2018-06-18T00:34:56.158Z,41.12
2018-06-18T00:37:25.445Z,41.12
2018-06-18T00:39:53.931Z,41.39
2018-06-18T00:42:22.680Z,41.33
2018-06-18T00:44:51.307Z,41.82
2018-06-18T00:47:19.813Z,41.06
2018-06-18T00:49:48.477Z,41.01
2018-06-18T00:52:16.987Z,41.29
2018-06-18T00:54:45.464Z,41.51
2018-06-18T00:57:14.029Z,41.65
2018-06-18T00:59:42.463Z,41.78
2018-06-18T01:02:11.009Z,41.42
2018-06-18T01:04:39.566Z,41.21
2018-06-18T01:07:08.292Z,41.93
2018-06-18T01:09:36.774Z,41.23
2018-06-18T01:12:05.273Z,41.89
2018-06-18T01:14:34.245Z,41.56
2018-06-18T01:17:03.365Z,41.96
2018-06-18T01:19:31.872Z,41.61
2018-06-18T01:22:00.462Z,41.84
2018-06-18T01:24:40.460Z,42.07
2018-06-18T01:27:09.399Z,41.55
2018-06-18T01:29:37.893Z,41.30
2018-06-18T01:32:06.441Z,41.37
2018-06-18T01:34:34.883Z,41.97
2018-06-18T01:37:04.754Z,41.30
2018-06-18T01:39:33.266Z,41.49
2018-06-18T01:42:01.926Z,42.16
2018-06-18T01:44:30.365Z,41.58
2018-06-18T01:46:58.882Z,42.19
2018-06-18T01:49:27.350Z,41.32
2018-06-18T01:51:56.039Z,42.25
2018-06-18T01:54:24.518Z,42.18
2018-06-18T01:56:53.005Z,42.11
2018-06-18T01:59:21.530Z,42.14
2018-06-18T02:01:50.089Z,42.05
2018-06-18T02:04:18.680Z,41.49
2018-06-18T02:06:47.257Z,41.35
2018-06-18T02:09:15.708Z,42.25
2018-06-18T02:11:44.837Z,41.51
2018-06-18T02:14:13.355Z,41.53
2018-06-18T02:16:41.904Z,41.58
2018-06-18T02:19:10.412Z,41.43
2018-06-18T02:21:39.618Z,41.90
2018-06-18T02:24:09.072Z,42.08
2018-06-18T02:26:37.967Z,42.16
2018-06-18T02:29:11.883Z,42.12
2018-06-18T02:31:45.801Z,41.30
2018-06-18T02:34:19.525Z,41.58
2018-06-18T02:36:53.430Z,42.33
2018-06-18T02:39:21.909Z,41.61
2018-06-18T02:41:51.036Z,41.69
2018-06-18T02:44:19.538Z,41.78
2018-06-18T02:46:48.012Z,41.79
2018-06-18T02:49:16.656Z,41.74
2018-06-18T02:51:45.226Z,41.68
2018-06-18T02:54:13.708Z,41.96
2018-06-18T02:56:52.206Z,42.26
2018-06-18T02:59:20.665Z,42.59
2018-06-18T03:01:50.184Z,41.93
2018-06-18T03:04:18.667Z,41.84
2018-06-18T03:06:47.229Z,41.85
2018-06-18T03:09:15.801Z,41.93
2018-06-18T03:11:44.470Z,42.66
2018-06-18T03:14:13.231Z,42.60
2018-06-18T03:16:41.662Z,42.09
2018-06-18T03:19:15.358Z,42.30
2018-06-18T03:21:49.298Z,42.63
2018-06-18T03:24:23.305Z,42.42
2018-06-18T03:26:57.651Z,41.84
2018-06-18T03:29:28.966Z,42.29
2018-06-18T03:31:59.358Z,42.61
2018-06-18T03:34:27.925Z,41.95
2018-06-18T03:36:57.292Z,42.09
2018-06-18T03:39:26.068Z,42.40
2018-06-18T03:41:55.176Z,42.29
2018-06-18T03:44:38.143Z,41.86
2018-06-18T03:47:17.488Z,41.81
2018-06-18T03:49:46.505Z,42.00
2018-06-18T03:52:15.025Z,42.57
2018-06-18T03:54:43.693Z,42.07
2018-06-18T03:57:12.708Z,42.01
2018-06-18T03:59:41.278Z,42.43
2018-06-18T04:02:19.862Z,41.96
2018-06-18T04:05:01.290Z,42.11
2018-06-18T04:08:04.676Z,42.05
2018-06-18T04:10:40.892Z,42.72
2018-06-18T04:13:09.791Z,42.19
2018-06-18T04:15:38.222Z,42.08
2018-06-18T04:18:06.770Z,42.05
2018-06-18T04:20:40.702Z,42.91
2018-06-18T04:23:09.377Z,42.53
2018-06-18T04:25:38.084Z,42.13
2018-06-18T04:28:06.610Z,42.58
2018-06-18T04:30:35.174Z,42.94
2018-06-18T04:33:03.878Z,42.47
2018-06-18T04:35:32.322Z,42.27
2018-06-18T04:38:00.804Z,42.86
2018-06-18T04:40:29.275Z,42.22
2018-06-18T04:43:03.145Z,42.81
2018-06-18T04:45:37.614Z,42.26
2018-06-18T04:48:12.061Z,42.26
2018-06-18T04:50:48.342Z,42.81
2018-06-18T04:53:17.096Z,42.25
2018-06-18T04:55:45.653Z,42.96
2018-06-18T04:58:14.254Z,43.08
2018-06-18T05:00:53.256Z,42.71
2018-06-18T05:03:21.765Z,42.84
2018-06-18T05:05:50.314Z,43.19
2018-06-18T05:08:49.673Z,43.38
2018-06-18T05:11:18.177Z,43.34
2018-06-18T05:13:49.141Z,43.29
2018-06-18T05:16:17.629Z,44.31
2018-06-18T05:18:46.154Z,43.93
2018-06-18T05:21:14.650Z,44.02
2018-06-18T05:23:43.187Z,44.11
2018-06-18T05:26:11.766Z,44.06
2018-06-18T05:28:40.276Z,44.13
2018-06-18T05:31:08.755Z,43.47
2018-06-18T05:33:37.505Z,43.44
2018-06-18T05:36:10.594Z,44.22
2018-06-18T05:38:39.130Z,43.34
2018-06-18T05:41:07.553Z,44.39
2018-06-18T05:43:36.390Z,43.91
2018-06-18T05:46:04.949Z,44.69
2018-06-18T05:48:33.396Z,44.40
2018-06-18T05:51:02.027Z,43.37
2018-06-18T05:53:31.237Z,42.88
2018-06-18T05:55:59.838Z,43.09
2018-06-18T05:58:28.430Z,43.20
2018-06-18T06:00:56.833Z,43.11
2018-06-18T06:03:25.316Z,43.20
2018-06-18T06:05:54.181Z,43.18
2018-06-18T06:08:23.425Z,43.33
2018-06-18T06:10:51.953Z,44.22
2018-06-18T06:13:20.524Z,44.33
2018-06-18T06:15:49.433Z,44.15
2018-06-18T06:18:17.927Z,43.52
2018-06-18T06:20:52.703Z,44.15
2018-06-18T06:23:21.186Z,43.42
2018-06-18T06:25:50.137Z,43.25
2018-06-18T06:28:18.618Z,43.38
2018-06-18T06:30:54.098Z,43.42
2018-06-18T06:33:23.982Z,43.33
2018-06-18T06:38:30.609Z,43.22
2018-06-18T06:40:59.044Z,43.71
2018-06-18T06:43:27.667Z,43.33
2018-06-18T06:45:56.785Z,43.55
2018-06-18T06:48:25.305Z,43.15
2018-06-18T06:50:53.766Z,43.20
2018-06-18T06:53:22.247Z,43.07
2018-06-18T06:55:50.874Z,43.66
2018-06-18T06:58:19.299Z,43.05
2018-06-18T07:00:47.769Z,43.30
2018-06-18T07:03:18.011Z,42.90
2018-06-18T07:05:46.896Z,43.19
2018-06-18T07:08:15.366Z,43.62
2018-06-18T07:10:43.788Z,42.84
2018-06-18T07:13:13.261Z,42.82
2018-06-18T07:15:42.889Z,42.73
2018-06-18T07:18:11.709Z,42.63
2018-06-18T07:20:41.133Z,43.48
2018-06-18T07:23:09.566Z,42.80
2018-06-18T07:25:38.618Z,43.58
2018-06-18T07:28:07.678Z,42.73
2018-06-18T07:30:36.731Z,42.70
2018-06-18T07:33:06.181Z,43.35
2018-06-18T07:35:34.905Z,42.69
2018-06-18T07:38:03.398Z,42.79
2018-06-18T07:40:32.810Z,42.71
2018-06-18T07:43:01.826Z,43.46
2018-06-18T07:45:30.548Z,43.80
2018-06-18T07:47:59.002Z,43.36
2018-06-18T07:50:27.481Z,43.29
2018-06-18T07:52:56.463Z,43.33
2018-06-18T07:55:25.534Z,42.81
2018-06-18T07:57:54.013Z,42.63
2018-06-18T08:00:23.395Z,42.61
2018-06-18T08:02:51.941Z,42.93
2018-06-18T08:05:20.694Z,42.53
2018-06-18T08:07:49.180Z,43.19
2018-06-18T08:10:18.517Z,42.94
2018-06-18T08:12:47.043Z,43.28
2018-06-18T08:15:16.244Z,43.20
2018-06-18T08:17:44.738Z,43.13
2018-06-18T08:20:15.598Z,43.35
2018-06-18T08:22:44.674Z,42.69
2018-06-18T08:25:13.335Z,42.53
2018-06-18T08:27:42.878Z,42.58
2018-06-18T08:30:13.181Z,42.54
2018-06-18T08:32:42.643Z,43.28
2018-06-18T08:35:11.121Z,42.53
2018-06-18T08:37:39.710Z,43.22
2018-06-18T08:40:08.296Z,43.03
2018-06-18T08:42:36.762Z,43.16
2018-06-18T08:45:05.245Z,42.56
2018-06-18T08:47:33.851Z,42.61
2018-06-18T08:50:07.556Z,42.60
2018-06-18T08:52:41.125Z,42.61
2018-06-18T08:55:14.770Z,43.42
2018-06-18T08:57:48.671Z,42.52
2018-06-18T09:00:27.594Z,43.12
2018-06-18T09:03:01.501Z,43.03
2018-06-18T09:05:35.201Z,42.61
2018-06-18T09:08:09.069Z,43.32
2018-06-18T09:10:37.537Z,42.71
2018-06-18T09:13:06.103Z,43.40
2018-06-18T09:15:34.615Z,43.16
2018-06-18T09:18:03.770Z,42.83
2018-06-18T09:20:32.348Z,42.66
2018-06-18T09:23:01.915Z,42.68
2018-06-18T09:25:30.478Z,42.67
2018-06-18T09:28:00.562Z,42.85
2018-06-18T09:30:35.226Z,43.42
2018-06-18T09:33:04.365Z,42.75
2018-06-18T09:35:33.336Z,43.12
2018-06-18T09:38:01.872Z,42.65
2018-06-18T09:40:30.432Z,43.04
2018-06-18T09:42:58.904Z,42.67
2018-06-18T09:45:27.580Z,43.05
2018-06-18T09:47:56.689Z,43.30
2018-06-18T09:50:31.041Z,43.38
2018-06-18T09:53:04.795Z,43.39
2018-06-18T09:55:38.472Z,43.43
2018-06-18T09:59:12.167Z,42.64
2018-06-18T10:01:40.984Z,42.70
2018-06-18T10:04:09.587Z,42.65
2018-06-18T10:06:41.445Z,43.24
2018-06-18T10:09:11.496Z,43.21
2018-06-18T10:11:39.942Z,43.41
2018-06-18T10:14:10.420Z,42.35
2018-06-18T10:16:39.290Z,42.91
2018-06-18T10:19:07.886Z,43.21
2018-06-18T10:21:36.325Z,43.35
2018-06-18T10:24:04.888Z,43.48
2018-06-18T10:26:33.421Z,43.35
2018-06-18T10:29:01.977Z,42.63
2018-06-18T10:31:30.452Z,43.49
2018-06-18T10:34:04.252Z,43.18
2018-06-18T10:36:37.949Z,42.59
2018-06-18T10:39:13.887Z,43.51
2018-06-18T10:41:47.662Z,43.43
2018-06-18T10:44:16.176Z,43.09
2018-06-18T10:46:44.742Z,43.40
2018-06-18T10:49:13.390Z,43.35
2018-06-18T10:51:41.861Z,42.79
2018-06-18T10:54:11.397Z,42.91
2018-06-18T10:56:40.457Z,43.44
2018-06-18T10:59:09.429Z,43.43
2018-06-18T11:01:37.885Z,42.71
2018-06-18T11:04:10.579Z,42.62
2018-06-18T11:06:39.067Z,43.04
2018-06-18T11:09:11.555Z,43.64
2018-06-18T11:11:40.036Z,43.43
2018-06-18T11:14:08.780Z,42.85
2018-06-18T11:16:37.421Z,42.86
2018-06-18T11:19:11.117Z,43.45
2018-06-18T11:21:44.978Z,42.95
2018-06-18T11:24:18.703Z,43.30
2018-06-18T11:27:02.021Z,42.77
2018-06-18T11:29:30.504Z,43.38
2018-06-18T11:31:59.397Z,42.73
2018-06-18T11:34:27.833Z,43.43
2018-06-18T11:36:56.333Z,42.80
2018-06-18T11:39:25.015Z,42.68
2018-06-18T11:41:53.743Z,43.26
2018-06-18T11:44:22.258Z,43.33
2018-06-18T11:46:50.690Z,43.46
2018-06-18T11:49:19.439Z,42.59
2018-06-18T11:51:47.890Z,42.66
2018-06-18T11:54:16.481Z,43.43
2018-06-18T11:56:44.965Z,43.33
2018-06-18T11:59:18.836Z,43.45
2018-06-18T12:01:52.599Z,43.38
2018-06-18T12:04:27.464Z,42.90
2018-06-18T12:07:59.614Z,43.32
2018-06-18T12:10:28.174Z,43.42
2018-06-18T12:12:56.611Z,42.68
2018-06-18T12:15:25.144Z,43.37
2018-06-18T12:17:54.194Z,43.47
2018-06-18T12:20:22.784Z,43.60
2018-06-18T12:22:51.426Z,43.64
2018-06-18T12:25:20.092Z,42.83
2018-06-18T12:27:48.683Z,42.92
2018-06-18T12:30:20.966Z,43.61
2018-06-18T12:32:49.446Z,43.57
2018-06-18T12:35:17.925Z,43.29
2018-06-18T12:37:47.144Z,43.10
2018-06-18T12:40:16.176Z,43.74
2018-06-18T12:42:44.786Z,42.92
2018-06-18T12:45:20.505Z,43.66
2018-06-18T12:47:54.530Z,43.62
2018-06-18T12:50:28.345Z,42.94
2018-06-18T12:53:02.122Z,43.52
2018-06-18T12:55:36.717Z,43.56
2018-06-18T12:58:05.437Z,43.77
2018-06-18T13:00:48.016Z,43.31
2018-06-18T13:03:17.384Z,42.91
2018-06-18T13:05:45.815Z,43.64
2018-06-18T13:08:14.288Z,43.03
2018-06-18T13:10:42.818Z,43.12
2018-06-18T13:13:11.270Z,43.78
2018-06-18T13:15:40.246Z,43.79
2018-06-18T13:18:08.988Z,42.94
2018-06-18T13:20:38.188Z,43.07
2018-06-18T13:23:07.276Z,43.89
2018-06-18T13:25:36.816Z,43.00
2018-06-18T13:28:10.477Z,43.03
2018-06-18T13:30:39.008Z,43.00
2018-06-18T13:33:07.478Z,43.60
2018-06-18T13:35:35.979Z,43.11
2018-06-18T13:38:09.857Z,42.94
2018-06-18T13:40:43.717Z,43.73
2018-06-18T13:43:17.409Z,43.80
2018-06-18T13:45:47.978Z,43.50
2018-06-18T13:48:21.563Z,43.53
2018-06-18T13:50:50.924Z,43.21
2018-06-18T13:53:19.353Z,43.57
2018-06-18T13:55:48.580Z,43.01
2018-06-18T13:58:17.112Z,43.74
2018-06-18T14:00:45.729Z,43.83
2018-06-18T14:03:14.198Z,43.77
2018-06-18T14:05:43.216Z,43.82
2018-06-18T14:08:12.221Z,42.95
2018-06-18T14:10:41.320Z,43.06
2018-06-18T14:13:09.889Z,43.62
2018-06-18T14:15:38.481Z,43.98
2018-06-18T14:18:06.996Z,43.74
2018-06-18T14:20:35.987Z,43.89
2018-06-18T14:23:04.888Z,43.86
2018-06-18T14:25:33.426Z,43.02
2018-06-18T14:28:02.767Z,44.09
2018-06-18T14:30:36.793Z,43.82
2018-06-18T14:33:10.501Z,43.72
2018-06-18T14:35:44.262Z,43.88
2018-06-18T14:38:19.112Z,43.93
2018-06-18T14:40:47.755Z,43.15
2018-06-18T14:43:16.200Z,43.89
2018-06-18T14:45:45.390Z,43.82
2018-06-18T14:48:13.913Z,43.35
2018-06-18T14:50:42.465Z,43.35
2018-06-18T14:53:10.945Z,44.02
2018-06-18T14:55:39.569Z,44.27
2018-06-18T14:58:08.033Z,44.30
2018-06-18T15:00:36.864Z,44.13
2018-06-18T15:03:05.435Z,44.83
2018-06-18T15:05:38.449Z,44.91
2018-06-18T15:08:07.255Z,45.68
2018-06-18T15:10:42.764Z,45.04
2018-06-18T15:13:13.445Z,45.10
2018-06-18T15:15:47.441Z,45.68
2018-06-18T15:18:15.974Z,45.63
2018-06-18T15:20:45.124Z,45.65
2018-06-18T15:23:13.559Z,45.29
2018-06-18T15:25:45.226Z,45.33
2018-06-18T15:28:13.844Z,45.03
2018-06-18T15:30:43.185Z,46.24
2018-06-18T15:33:12.544Z,46.89
2018-06-18T15:35:41.699Z,46.86
2018-06-18T15:38:10.296Z,46.43
2018-06-18T15:40:38.906Z,46.52
2018-06-18T15:43:07.415Z,46.69
2018-06-18T15:45:36.017Z,47.00
2018-06-18T15:48:06.361Z,47.39
2018-06-18T15:50:35.183Z,46.73
2018-06-18T15:53:04.081Z,47.64
2018-06-18T15:55:32.917Z,47.65
2018-06-18T15:58:02.765Z,47.58
2018-06-18T16:00:41.032Z,47.50
2018-06-18T16:03:10.050Z,47.53
2018-06-18T16:05:38.860Z,47.49
2018-06-18T16:08:08.765Z,48.14
2018-06-18T16:10:41.077Z,48.15
2018-06-18T16:13:10.226Z,47.23
2018-06-18T16:15:39.416Z,47.50
2018-06-18T16:18:08.516Z,48.36
2018-06-18T16:20:38.734Z,47.87
2018-06-18T16:23:08.599Z,47.72
2018-06-18T16:25:37.208Z,48.39
2018-06-18T16:28:06.320Z,47.51
2018-06-18T16:30:39.725Z,47.54
2018-06-18T16:33:09.799Z,48.35
2018-06-18T16:35:39.535Z,48.15
2018-06-18T16:38:08.453Z,48.28
2018-06-18T16:40:37.998Z,47.82
2018-06-18T16:43:10.074Z,47.68
2018-06-18T16:45:38.782Z,48.22
2018-06-18T16:48:08.267Z,48.80
2018-06-18T16:50:37.921Z,48.47
2018-06-18T16:53:08.475Z,48.54
2018-06-18T16:55:38.342Z,48.42
2018-06-18T16:58:08.254Z,48.13
2018-06-18T17:00:38.421Z,47.82
2018-06-18T17:03:09.943Z,47.60
2018-06-18T17:05:40.155Z,48.64
2018-06-18T17:08:09.069Z,48.41
2018-06-18T17:10:37.873Z,47.82
2018-06-18T17:13:06.947Z,47.94
2018-06-18T17:15:36.357Z,48.91
2018-06-18T17:18:05.113Z,48.13
2018-06-18T17:20:33.609Z,48.30
2018-06-18T17:23:03.938Z,48.92
2018-06-18T17:25:34.430Z,49.10
2018-06-18T17:28:03.330Z,48.32
2018-06-18T17:30:32.577Z,48.78
2018-06-18T17:33:01.837Z,48.06
2018-06-18T17:35:30.458Z,47.94
2018-06-18T17:37:59.711Z,47.88
2018-06-18T17:40:28.217Z,47.60
2018-06-18T17:42:57.059Z,48.26
2018-06-18T17:45:26.886Z,47.84
2018-06-18T17:47:55.557Z,48.02
2018-06-18T17:50:24.062Z,48.53
2018-06-18T17:52:52.985Z,48.93
2018-06-18T17:55:21.730Z,49.02
2018-06-18T17:57:50.185Z,49.53
2018-06-18T18:00:19.157Z,49.74
2018-06-18T18:02:47.682Z,49.07
2018-06-18T18:05:16.162Z,49.73
2018-06-18T18:07:44.762Z,49.58
2018-06-18T18:10:13.281Z,49.83
2018-06-18T18:12:42.058Z,49.00
2018-06-18T18:15:10.679Z,48.77
2018-06-18T18:17:40.478Z,49.25
2018-06-18T18:20:08.922Z,48.78
2018-06-18T18:22:37.490Z,49.23
2018-06-18T18:25:06.233Z,48.66
2018-06-18T18:27:35.916Z,48.85
2018-06-18T18:30:04.546Z,48.84
2018-06-18T18:32:33.240Z,49.47
2018-06-18T18:35:03.101Z,49.51
2018-06-18T18:37:32.290Z,48.78
2018-06-18T18:40:02.017Z,49.04
2018-06-18T18:42:31.999Z,49.13
2018-06-18T18:45:00.733Z,49.04
2018-06-18T18:47:32.309Z,49.29
2018-06-18T18:50:02.567Z,49.55
2018-06-18T18:52:31.504Z,49.72
2018-06-18T18:56:36.835Z,49.71
2018-06-18T18:59:26.931Z,49.84
2018-06-18T19:01:55.496Z,50.83
2018-06-18T19:04:28.899Z,49.96
2018-06-18T19:06:58.298Z,50.05
2018-06-18T19:09:30.242Z,50.26
2018-06-18T19:11:58.943Z,50.92
2018-06-18T19:14:27.543Z,50.89
2018-06-18T19:16:56.039Z,50.87
2018-06-18T19:19:27.153Z,50.83
2018-06-18T19:21:55.605Z,51.51
2018-06-18T19:24:25.831Z,51.16
2018-06-18T19:26:54.855Z,51.04
2018-06-18T19:29:23.701Z,51.30
2018-06-18T19:31:52.172Z,51.92
2018-06-18T19:34:24.763Z,51.70
2018-06-18T19:36:54.912Z,51.09
2018-06-18T19:39:27.417Z,51.65
2018-06-18T19:41:55.932Z,51.55
2018-06-18T19:44:24.975Z,51.25
2018-06-18T19:47:08.401Z,51.54
2018-06-18T19:49:37.386Z,51.04
2018-06-18T19:52:05.978Z,50.52
2018-06-18T19:54:38.419Z,51.06
2018-06-18T19:57:08.161Z,50.52
2018-06-18T19:59:37.712Z,51.34
2018-06-18T20:02:07.119Z,51.41
2018-06-18T20:04:36.707Z,51.47
2018-06-18T20:07:07.011Z,51.43
2018-06-18T20:09:37.753Z,51.29
2018-06-18T20:12:07.333Z,50.77
2018-06-18T20:14:36.981Z,50.75
2018-06-18T20:17:06.341Z,51.38
2018-06-18T20:19:34.805Z,51.05
2018-06-18T20:22:03.283Z,51.33
2018-06-18T20:24:32.162Z,51.11
2018-06-18T20:27:01.118Z,50.38
2018-06-18T20:29:30.363Z,50.41
2018-06-18T20:31:59.394Z,51.01
2018-06-18T20:34:29.431Z,50.49
2018-06-18T20:36:58.821Z,50.48
2018-06-18T20:39:28.081Z,50.06
2018-06-18T20:41:56.975Z,49.86
2018-06-18T20:44:30.833Z,49.76
2018-06-18T20:47:00.473Z,49.81
2018-06-18T20:49:29.249Z,49.70
2018-06-18T20:51:58.218Z,49.73
2018-06-18T20:54:27.411Z,49.51
2018-06-18T20:56:58.287Z,49.40
2018-06-18T20:59:27.251Z,49.38
2018-06-18T21:01:56.633Z,49.88
2018-06-18T21:04:26.025Z,49.25
2018-06-18T21:06:54.930Z,49.18
2018-06-18T21:09:25.046Z,49.28
2018-06-18T21:11:55.475Z,49.06
2018-06-18T21:14:25.328Z,49.13
2018-06-18T21:16:55.614Z,48.99
2018-06-18T21:19:27.331Z,49.59
2018-06-18T21:21:56.984Z,48.90
2018-06-18T21:24:27.152Z,49.31
2018-06-18T21:26:57.788Z,48.67
2018-06-18T21:29:27.402Z,49.51
2018-06-18T21:31:57.054Z,49.26
2018-06-18T21:34:27.158Z,49.32
2018-06-18T21:36:56.947Z,48.49
2018-06-18T21:39:26.516Z,49.00
2018-06-18T21:41:55.669Z,49.18
2018-06-18T21:44:31.117Z,48.38
2018-06-18T21:47:00.285Z,49.11
2018-06-18T21:49:28.813Z,48.37
2018-06-18T21:51:57.771Z,48.89
2018-06-18T21:54:26.786Z,49.23
2018-06-18T21:56:55.473Z,48.96
2018-06-18T21:59:25.285Z,49.21
2018-06-18T22:01:53.808Z,48.53
2018-06-18T22:04:22.296Z,49.16
2018-06-18T22:06:50.866Z,48.36
2018-06-18T22:09:21.222Z,48.75
2018-06-18T22:11:53.335Z,48.00
2018-06-18T22:14:22.198Z,48.60
2018-06-18T22:16:50.874Z,48.28
2018-06-18T22:19:19.362Z,48.63
2018-06-18T22:21:48.276Z,47.81
2018-06-18T22:24:16.822Z,48.45
2018-06-18T22:26:45.924Z,47.95
2018-06-18T22:29:15.863Z,47.76
2018-06-18T22:31:44.572Z,48.43
2018-06-18T22:34:13.070Z,47.67
2018-06-18T22:36:41.659Z,48.26
2018-06-18T22:39:12.671Z,48.27
2018-06-18T22:41:41.167Z,48.42
2018-06-18T22:44:10.613Z,48.28
2018-06-18T22:46:39.203Z,47.66
2018-06-18T22:49:07.865Z,48.41
2018-06-18T22:51:36.518Z,48.20
2018-06-18T22:54:06.503Z,47.95
2018-06-18T22:56:35.166Z,47.94
2018-06-18T22:59:03.635Z,47.36
2018-06-18T23:01:32.204Z,47.87
2018-06-18T23:04:00.913Z,47.94
2018-06-18T23:06:29.557Z,47.53
2018-06-18T23:08:58.189Z,48.00
2018-06-18T23:11:26.685Z,47.24
2018-06-18T23:13:56.300Z,47.87
2018-06-18T23:16:25.016Z,47.36
2018-06-18T23:18:53.470Z,46.74
2018-06-18T23:21:22.378Z,47.15
2018-06-18T23:23:50.903Z,47.35
2018-06-18T23:26:19.942Z,47.71
2018-06-18T23:28:53.223Z,47.79
2018-06-18T23:31:22.578Z,46.97
2018-06-18T23:33:51.388Z,47.69
2018-06-18T23:36:20.562Z,46.94
2018-06-18T23:38:49.730Z,47.54
2018-06-18T23:41:18.966Z,46.93
2018-06-18T23:43:47.417Z,46.88
2018-06-18T23:46:16.073Z,46.71
2018-06-18T23:48:44.514Z,47.24
2018-06-18T23:51:13.164Z,47.46
2018-06-18T23:53:41.838Z,47.18
2018-06-18T23:56:10.453Z,47.06
2018-06-18T23:58:38.925Z,46.67
